CSS7203 VHHH-RCTP
Flight info
| Callsign | CSS7203 |
|---|---|
| Flight time | N/A |
| Altitude | 33000 |
| Route | DALOL V631 ENVAR M750 TONGA |
| Aircraft | B772/H-SDE2E3FGILRWXY/LB2 |
Departure
| Time | N/A |
|---|---|
| Airport | Hong Kong International Airport (VHHH) |
Arrival
| Time | 2026-05-07 14:28 |
|---|---|
| Airport | Taiwan Taoyuan International Airport (RCTP) |
| Time | Latitude | Longitude | Altitude | Speed | Heading |
|---|---|---|---|---|---|
| 2026-05-07 14:21 | 24.91477 | 120.94734 | 3975 ft | 227 kts | 95° |
| 2026-05-07 14:22 | 24.91395 | 120.96449 | 3984 ft | 223 kts | 95° |
| 2026-05-07 14:22 | 24.91314 | 120.98156 | 3998 ft | 223 kts | 95° |
| 2026-05-07 14:22 | 24.91249 | 120.99860 | 3900 ft | 221 kts | 88° |
| 2026-05-07 14:22 | 24.91661 | 121.01337 | 3636 ft | 216 kts | 58° |
| 2026-05-07 14:23 | 24.92518 | 121.02677 | 3324 ft | 213 kts | 53° |
| 2026-05-07 14:23 | 24.93448 | 121.03955 | 2963 ft | 214 kts | 51° |
| 2026-05-07 14:23 | 24.94404 | 121.05192 | 2701 ft | 207 kts | 50° |
| 2026-05-07 14:23 | 24.95318 | 121.06358 | 2634 ft | 201 kts | 49° |
| 2026-05-07 14:24 | 24.96242 | 121.07532 | 2618 ft | 203 kts | 50° |
| 2026-05-07 14:24 | 24.97157 | 121.08696 | 2591 ft | 197 kts | 50° |
| 2026-05-07 14:24 | 24.98047 | 121.09830 | 2593 ft | 196 kts | 49° |
| 2026-05-07 14:24 | 24.98949 | 121.10977 | 2527 ft | 200 kts | 49° |
| 2026-05-07 14:25 | 24.99872 | 121.12152 | 2256 ft | 202 kts | 50° |
| 2026-05-07 14:25 | 25.00775 | 121.13302 | 2013 ft | 191 kts | 50° |
| 2026-05-07 14:25 | 25.01615 | 121.14371 | 1761 ft | 176 kts | 50° |
| 2026-05-07 14:25 | 25.02382 | 121.15350 | 1515 ft | 169 kts | 50° |
| 2026-05-07 14:26 | 25.03150 | 121.16328 | 1345 ft | 169 kts | 50° |
| 2026-05-07 14:26 | 25.03915 | 121.17303 | 1102 ft | 167 kts | 50° |
| 2026-05-07 14:26 | 25.04654 | 121.18245 | 880 ft | 156 kts | 50° |
| 2026-05-07 14:26 | 25.05346 | 121.19126 | 680 ft | 151 kts | 50° |
| 2026-05-07 14:27 | 25.06029 | 121.19995 | 488 ft | 149 kts | 50° |
| 2026-05-07 14:27 | 25.06479 | 121.20567 | 357 ft | 148 kts | 50° |
| 2026-05-07 14:27 | 25.07373 | 121.21706 | 119 ft | 148 kts | 49° |
| 2026-05-07 14:27 | 25.07987 | 121.22485 | 107 ft | 112 kts | 49° |
| 2026-05-07 14:28 | 25.08273 | 121.22848 | 107 ft | 77 kts | 49° |
| 2026-05-07 14:28 | 25.08561 | 121.23214 | 105 ft | 32 kts | 49° |
| 2026-05-07 14:28 | 25.08650 | 121.23338 | 107 ft | 30 kts | 58° |
| 2026-05-07 14:28 | 25.08708 | 121.23506 | 106 ft | 21 kts | 78° |
| 2026-05-07 14:29 | 25.08720 | 121.23573 | 106 ft | 7 kts | 78° |
| 2026-05-07 14:29 | 25.08731 | 121.23631 | 106 ft | 8 kts | 79° |
| 2026-05-07 14:29 | 25.08742 | 121.23694 | 105 ft | 8 kts | 79° |
| 2026-05-07 14:29 | 25.08755 | 121.23757 | 107 ft | 8 kts | 71° |
| 2026-05-07 14:30 | 25.08781 | 121.23814 | 108 ft | 8 kts | 59° |
| 2026-05-07 14:30 | 25.08817 | 121.23864 | 105 ft | 9 kts | 48° |
| 2026-05-07 14:30 | 25.08851 | 121.23917 | 107 ft | 8 kts | 79° |
| 2026-05-07 14:30 | 25.08820 | 121.23964 | 106 ft | 8 kts | 139° |
| 2026-05-07 14:31 | 25.08785 | 121.23998 | 107 ft | 2 kts | 139° |
| 2026-05-07 14:31 | 25.08777 | 121.24005 | 105 ft | 0 kts | 139° |